Time;durP1;ratioP1;P1;durP2;ratioP2;P2;SDS_P1;SDS_P2;PMS_P1;PMS_P2;Temp;Humidity;BMP_temperature;BMP_pressure;BME280_temperature;BME280_humidity;BME280_pressure;Samples;Min_cycle;Max_cycle;Signal;HPM_P1;HPM_P2
2023/05/09 00:00:48;;;;;;;23.30;17.40;;;409.90;2355.20;;;;;;5056540;28;20021;-84
2023/05/09 00:03:15;;;;;;;21.85;17.35;;;409.70;2355.20;;;;;;5054933;28;20113;-82
2023/05/09 00:05:40;;;;;;;26.27;17.98;;;409.70;2355.20;;;;;;5050579;28;20025;-80
2023/05/09 00:08:06;;;;;;;26.83;19.05;;;409.60;2355.20;;;;;;5050917;28;20032;-81
2023/05/09 00:10:32;;;;;;;26.52;18.23;;;384.90;2329.60;;;;;;5053721;28;20083;-81
2023/05/09 00:12:59;;;;;;;23.83;17.63;;;384.90;2329.60;;;;;;5052305;28;20017;-81
2023/05/09 00:15:25;;;;;;;21.40;17.45;;;384.90;2329.60;;;;;;5031921;28;20022;-81
2023/05/09 00:17:51;;;;;;;22.48;17.17;;;384.90;2329.60;;;;;;5049012;28;20026;-81
2023/05/09 00:20:18;;;;;;;21.20;16.92;;;384.90;2329.60;;;;;;5068129;28;20032;-80
2023/05/09 00:22:44;;;;;;;23.35;18.08;;;384.80;2329.60;;;;;;5051018;28;20049;-81
2023/05/09 00:25:11;;;;;;;24.55;18.63;;;384.70;2329.60;;;;;;5050583;28;20052;-81
2023/05/09 00:27:37;;;;;;;26.15;19.42;;;384.80;2329.60;;;;;;5048780;28;20018;-81
2023/05/09 00:30:04;;;;;;;22.20;18.65;;;384.70;2329.60;;;;;;5033593;28;20105;-80
2023/05/09 00:32:32;;;;;;;22.25;18.38;;;384.40;2329.60;;;;;;5045554;28;20025;-82
2023/05/09 00:34:59;;;;;;;25.80;18.35;;;384.70;2329.60;;;;;;5058443;28;20094;-84
2023/05/09 00:37:25;;;;;;;22.67;17.88;;;409.80;2355.20;;;;;;5052351;28;20040;-84
2023/05/09 00:39:51;;;;;;;25.42;18.48;;;384.70;2329.60;;;;;;5059578;28;20028;-85
2023/05/09 00:42:17;;;;;;;25.10;17.35;;;384.60;2329.60;;;;;;5042852;28;20041;-85
2023/05/09 00:44:43;;;;;;;26.63;18.88;;;384.70;2329.60;;;;;;5043019;28;20015;-84
2023/05/09 00:47:10;;;;;;;22.33;17.30;;;384.60;2329.60;;;;;;5042299;28;20124;-84
2023/05/09 00:49:36;;;;;;;24.63;17.90;;;410.00;2355.20;;;;;;5058281;28;20027;-83
2023/05/09 00:52:03;;;;;;;25.27;19.40;;;384.80;2329.60;;;;;;5041854;28;20016;-84
2023/05/09 00:54:30;;;;;;;26.38;20.08;;;384.90;2329.60;;;;;;5041828;28;20025;-84
2023/05/09 00:56:56;;;;;;;23.10;18.70;;;384.80;2329.60;;;;;;5041524;28;20018;-84
2023/05/09 00:59:22;;;;;;;24.08;18.85;;;384.70;2329.60;;;;;;5041579;28;20038;-84
2023/05/09 01:01:48;;;;;;;24.15;19.02;;;409.60;2355.20;;;;;;5041807;28;20021;-84
2023/05/09 01:04:15;;;;;;;26.23;20.10;;;384.80;2329.60;;;;;;5055278;28;20024;-84
2023/05/09 01:06:56;;;;;;;24.52;19.70;;;384.90;2329.60;;;;;;5061838;28;20025;-84
2023/05/09 01:09:46;;;;;;;25.33;18.02;;;384.80;2329.60;;;;;;5061526;28;20029;-84
2023/05/09 01:12:28;;;;;;;24.40;19.52;;;384.90;2329.60;;;;;;5061546;28;20011;-84
2023/05/09 01:15:40;;;;;;;25.05;17.88;;;384.90;2329.60;;;;;;5074484;28;20014;-84
2023/05/09 01:18:20;;;;;;;23.33;18.85;;;384.70;2329.60;;;;;;5001417;28;20038;-84
2023/05/09 01:20:56;;;;;;;24.13;18.45;;;384.70;2329.60;;;;;;5001778;28;20035;-85
2023/05/09 01:23:43;;;;;;;25.17;19.85;;;384.80;2329.60;;;;;;5001653;28;20053;-84
2023/05/09 01:26:21;;;;;;;26.40;19.35;;;384.90;2329.60;;;;;;5001649;28;20010;-84
2023/05/09 01:29:11;;;;;;;32.70;23.63;;;384.80;2329.60;;;;;;5000683;28;20076;-84
2023/05/09 01:31:40;;;;;;;35.05;23.80;;;384.70;2329.60;;;;;;5001093;28;20011;-85
2023/05/09 01:34:09;;;;;;;29.75;21.33;;;384.70;2329.60;;;;;;5000917;28;20030;-83
2023/05/09 01:36:39;;;;;;;23.58;18.13;;;384.70;2329.60;;;;;;5001210;28;20062;-84
2023/05/09 01:39:06;;;;;;;21.58;17.17;;;384.70;2329.60;;;;;;5000785;28;20031;-85
2023/05/09 01:41:36;;;;;;;22.35;18.02;;;384.40;2329.60;;;;;;5001108;28;20029;-84
2023/05/09 01:44:07;;;;;;;24.25;17.55;;;384.40;2329.60;;;;;;5000813;28;20058;-83
2023/05/09 01:46:35;;;;;;;24.80;19.10;;;384.40;2329.60;;;;;;5001568;28;20039;-85
2023/05/09 01:49:02;;;;;;;24.45;19.20;;;384.40;2329.60;;;;;;5001070;28;20042;-84
2023/05/09 01:51:30;;;;;;;24.65;19.98;;;409.60;2355.20;;;;;;4977986;28;20046;-84
2023/05/09 01:53:59;;;;;;;23.77;18.75;;;384.50;2329.60;;;;;;4990598;28;20014;-84
2023/05/09 01:56:26;;;;;;;19.90;16.65;;;384.60;2329.60;;;;;;5001399;28;20021;-85
2023/05/09 01:58:55;;;;;;;24.10;18.00;;;384.70;2329.60;;;;;;5001270;28;20031;-85
2023/05/09 02:01:23;;;;;;;25.15;17.98;;;384.70;2329.60;;;;;;5000867;28;20042;-85
2023/05/09 02:03:52;;;;;;;44.88;26.58;;;384.70;2329.60;;;;;;5001114;28;20011;-84
2023/05/09 02:06:21;;;;;;;78.47;42.63;;;384.70;2329.60;;;;;;5001090;28;20125;-85
2023/05/09 02:08:48;;;;;;;50.90;30.08;;;384.90;2329.60;;;;;;5000958;28;20026;-84
2023/05/09 02:11:14;;;;;;;48.13;28.10;;;384.70;2329.60;;;;;;5001058;28;20042;-84
2023/05/09 02:13:41;;;;;;;33.20;22.02;;;384.30;2329.60;;;;;;5000954;28;20030;-84
2023/05/09 02:16:08;;;;;;;31.38;23.83;;;435.80;2355.20;;;;;;5001017;28;20061;-85
2023/05/09 02:18:34;;;;;;;31.00;19.25;;;384.90;2329.60;;;;;;5000682;28;20022;-85
2023/05/09 02:21:01;;;;;;;19.08;15.35;;;384.70;2329.60;;;;;;5000787;28;20071;-84
2023/05/09 02:23:27;;;;;;;19.65;16.35;;;384.50;2329.60;;;;;;5057161;28;20045;-84
2023/05/09 02:25:54;;;;;;;18.23;14.55;;;384.50;2329.60;;;;;;5060127;28;20002;-84
2023/05/09 02:28:22;;;;;;;21.65;16.02;;;358.90;2329.60;;;;;;5060196;28;20033;-84
2023/05/09 02:30:49;;;;;;;23.00;15.18;;;384.40;2329.60;;;;;;5060463;28;20033;-85
2023/05/09 02:33:16;;;;;;;19.33;15.27;;;384.40;2329.60;;;;;;5058550;28;20014;-85
2023/05/09 02:35:45;;;;;;;21.65;16.77;;;384.40;2329.60;;;;;;5047334;28;20029;-84
2023/05/09 02:38:12;;;;;;;26.33;20.40;;;384.50;2329.60;;;;;;5040848;28;20025;-83
2023/05/09 02:40:39;;;;;;;23.75;18.35;;;384.40;2329.60;;;;;;5051936;28;20021;-83
2023/05/09 02:43:05;;;;;;;27.25;21.13;;;384.20;2329.60;;;;;;5060041;28;20019;-84
2023/05/09 02:45:31;;;;;;;26.67;19.45;;;384.60;2329.60;;;;;;5060231;28;20089;-84
2023/05/09 02:47:57;;;;;;;23.92;18.65;;;384.40;2329.60;;;;;;5059775;28;20021;-84
2023/05/09 02:50:24;;;;;;;23.50;18.52;;;384.60;2329.60;;;;;;5060127;28;20019;-84
2023/05/09 02:52:50;;;;;;;27.23;21.05;;;384.60;2329.60;;;;;;5060097;28;20005;-85
2023/05/09 02:55:16;;;;;;;25.55;20.85;;;384.40;2329.60;;;;;;5060424;28;20016;-84
2023/05/09 02:57:42;;;;;;;32.90;23.02;;;384.60;2329.60;;;;;;5059743;28;20113;-84
2023/05/09 03:00:09;;;;;;;29.55;21.77;;;384.60;2329.60;;;;;;5056381;28;20030;-84
2023/05/09 03:02:36;;;;;;;28.58;21.88;;;410.50;2355.20;;;;;;5040123;28;20021;-84
2023/05/09 03:05:02;;;;;;;28.63;20.70;;;409.90;2355.20;;;;;;5052326;28;20048;-85
2023/05/09 03:07:29;;;;;;;26.45;20.50;;;384.70;2329.60;;;;;;5039884;28;20021;-84
2023/05/09 03:09:55;;;;;;;27.45;20.98;;;410.50;2355.20;;;;;;5049892;28;20056;-84
2023/05/09 03:12:21;;;;;;;31.48;22.95;;;384.60;2329.60;;;;;;5039456;28;20009;-84
2023/05/09 03:14:47;;;;;;;28.02;21.88;;;384.40;2329.60;;;;;;5051005;28;20028;-85
2023/05/09 03:17:20;;;;;;;23.30;18.20;;;384.50;2329.60;;;;;;5059806;28;20031;-85
2023/05/09 03:19:47;;;;;;;22.92;17.75;;;384.30;2329.60;;;;;;5059172;28;20029;-84
2023/05/09 03:22:13;;;;;;;24.17;17.60;;;384.10;2329.60;;;;;;5075992;28;20121;-83
2023/05/09 03:24:39;;;;;;;21.98;17.50;;;358.90;2329.60;;;;;;5076329;28;20085;-83
2023/05/09 03:27:05;;;;;;;24.90;19.33;;;358.50;2329.60;;;;;;5059230;28;20012;-84
2023/05/09 03:29:32;;;;;;;24.70;19.17;;;384.30;2329.60;;;;;;5076129;28;20035;-84
2023/05/09 03:31:58;;;;;;;23.38;19.35;;;384.40;2329.60;;;;;;5055694;28;20033;-83
2023/05/09 03:34:24;;;;;;;28.83;20.23;;;384.40;2329.60;;;;;;5039226;28;20025;-83
2023/05/09 03:36:50;;;;;;;31.05;23.13;;;384.90;2329.60;;;;;;5053228;28;20052;-84
2023/05/09 03:39:16;;;;;;;27.48;21.90;;;410.20;2355.20;;;;;;5059165;28;20092;-84
2023/05/09 03:41:43;;;;;;;30.02;23.20;;;384.40;2329.60;;;;;;5054788;28;20029;-83
2023/05/09 03:44:09;;;;;;;28.00;20.38;;;384.40;2329.60;;;;;;5055342;28;20045;-84
2023/05/09 03:46:35;;;;;;;28.33;22.02;;;384.40;2329.60;;;;;;5058951;28;20021;-84
2023/05/09 03:49:03;;;;;;;28.85;23.27;;;384.90;2329.60;;;;;;5059016;28;20080;-84
2023/05/09 03:51:29;;;;;;;33.00;22.67;;;384.40;2329.60;;;;;;5059155;28;20029;-84
2023/05/09 03:53:55;;;;;;;34.47;25.05;;;384.10;2329.60;;;;;;5060441;28;20025;-84
2023/05/09 03:56:21;;;;;;;37.65;27.92;;;384.30;2329.60;;;;;;5059355;28;20096;-83
2023/05/09 03:58:47;;;;;;;38.17;26.83;;;384.30;2329.60;;;;;;5043039;28;20032;-85
2023/05/09 04:01:14;;;;;;;38.92;28.52;;;384.30;2329.60;;;;;;5046523;28;20001;-84
2023/05/09 04:03:40;;;;;;;41.92;30.23;;;384.30;2329.60;;;;;;5078705;28;20031;-83
2023/05/09 04:06:07;;;;;;;40.45;28.63;;;384.30;2329.60;;;;;;5061726;28;20025;-83
2023/05/09 04:08:33;;;;;;;42.60;29.23;;;384.30;2329.60;;;;;;5061415;28;20032;-82
2023/05/09 04:10:59;;;;;;;37.65;27.83;;;384.40;2329.60;;;;;;5061570;28;20028;-84
2023/05/09 04:13:26;;;;;;;40.78;29.00;;;410.30;2355.20;;;;;;5059241;28;20021;-83
2023/05/09 04:15:52;;;;;;;44.05;29.50;;;384.40;2329.60;;;;;;5058849;28;20056;-83
2023/05/09 04:18:19;;;;;;;37.13;26.98;;;384.30;2329.60;;;;;;5057713;28;20029;-83
2023/05/09 04:20:45;;;;;;;40.50;28.42;;;384.30;2329.60;;;;;;5039703;28;20009;-83
2023/05/09 04:23:11;;;;;;;42.75;28.83;;;384.30;2329.60;;;;;;5041314;28;20049;-83
2023/05/09 04:25:37;;;;;;;40.92;29.58;;;410.30;2355.20;;;;;;5061944;28;20025;-83
2023/05/09 04:28:03;;;;;;;39.83;28.20;;;384.40;2329.60;;;;;;5061914;28;20025;-83
2023/05/09 04:30:30;;;;;;;36.70;27.38;;;384.40;2329.60;;;;;;5061627;28;20100;-83
2023/05/09 04:32:56;;;;;;;35.95;25.73;;;384.40;2329.60;;;;;;5061623;28;20024;-83
2023/05/09 04:35:22;;;;;;;36.03;25.52;;;384.40;2329.60;;;;;;5061448;28;20027;-84
2023/05/09 04:37:48;;;;;;;38.03;26.15;;;384.20;2329.60;;;;;;5062222;28;20005;-83
2023/05/09 04:40:14;;;;;;;31.33;23.27;;;384.50;2329.60;;;;;;5078498;28;20021;-84
2023/05/09 04:42:42;;;;;;;34.53;23.52;;;384.30;2329.60;;;;;;5058795;28;20040;-84
2023/05/09 04:45:10;;;;;;;33.40;23.17;;;384.60;2329.60;;;;;;5042237;28;20044;-84
2023/05/09 04:47:36;;;;;;;27.92;21.45;;;384.50;2329.60;;;;;;5042047;28;20040;-86
2023/05/09 04:50:03;;;;;;;26.15;18.08;;;384.70;2329.60;;;;;;5042108;28;20057;-83
2023/05/09 04:52:29;;;;;;;26.02;18.75;;;384.60;2329.60;;;;;;5042034;28;20010;-84
2023/05/09 04:54:55;;;;;;;25.70;19.85;;;384.70;2329.60;;;;;;5042161;28;20009;-84
2023/05/09 04:57:21;;;;;;;21.17;15.50;;;384.60;2329.60;;;;;;5041191;28;20029;-83
2023/05/09 04:59:47;;;;;;;15.30;11.57;;;384.50;2329.60;;;;;;5042115;28;20036;-84
2023/05/09 05:02:13;;;;;;;13.45;10.48;;;410.30;2355.20;;;;;;5052963;28;20023;-84
2023/05/09 05:04:39;;;;;;;13.25;10.35;;;384.40;2329.60;;;;;;5061166;28;20024;-82
2023/05/09 05:07:06;;;;;;;14.38;10.10;;;384.50;2329.60;;;;;;5057521;28;20032;-84
2023/05/09 05:09:32;;;;;;;15.82;9.82;;;384.50;2329.60;;;;;;5042003;28;20068;-83
2023/05/09 05:11:58;;;;;;;11.85;8.43;;;358.80;2329.60;;;;;;5048104;28;20016;-84
2023/05/09 05:14:24;;;;;;;10.27;7.57;;;358.90;2329.60;;;;;;5061852;28;20021;-84
2023/05/09 05:16:54;;;;;;;10.05;7.38;;;384.50;2329.60;;;;;;5061485;28;20431;-83
2023/05/09 05:19:20;;;;;;;11.55;6.32;;;409.60;2355.20;;;;;;5061721;28;20028;-84
2023/05/09 05:21:46;;;;;;;7.70;5.40;;;384.60;2329.60;;;;;;5060587;28;20005;-83
2023/05/09 05:24:12;;;;;;;8.38;4.50;;;384.60;2329.60;;;;;;5060441;28;20082;-84
2023/05/09 05:26:38;;;;;;;6.80;4.28;;;384.60;2329.60;;;;;;5061294;28;20021;-84
2023/05/09 05:29:05;;;;;;;5.75;4.13;;;384.50;2329.60;;;;;;5060960;28;20007;-84
2023/05/09 05:31:31;;;;;;;7.70;3.97;;;384.70;2329.60;;;;;;5061014;28;20093;-84
2023/05/09 05:33:57;;;;;;;3.72;2.42;;;384.70;2329.60;;;;;;5077780;28;20088;-84
2023/05/09 05:36:23;;;;;;;4.60;2.35;;;384.70;2329.60;;;;;;5077485;28;20016;-84
2023/05/09 05:38:50;;;;;;;6.28;2.67;;;384.70;2329.60;;;;;;5061284;28;20044;-84
2023/05/09 05:41:16;;;;;;;3.90;2.20;;;384.50;2329.60;;;;;;5060849;28;20012;-83
2023/05/09 05:43:51;;;;;;;3.42;1.63;;;384.50;2329.60;;;;;;5060923;28;20017;-84
2023/05/09 05:46:17;;;;;;;5.90;1.90;;;384.60;2329.60;;;;;;5060700;28;20072;-84
2023/05/09 05:48:43;;;;;;;3.53;1.92;;;384.40;2329.60;;;;;;5077230;28;20024;-84
2023/05/09 05:51:09;;;;;;;3.83;2.00;;;409.60;2355.20;;;;;;5076522;28;20033;-84
2023/05/09 05:53:36;;;;;;;4.68;2.20;;;384.20;2329.60;;;;;;5060514;28;20021;-84
2023/05/09 05:56:02;;;;;;;4.80;1.83;;;384.30;2329.60;;;;;;5046306;28;20018;-84
2023/05/09 05:58:28;;;;;;;5.13;3.17;;;384.40;2329.60;;;;;;5040282;28;20018;-84
2023/05/09 06:00:54;;;;;;;8.00;2.78;;;384.50;2329.60;;;;;;5040087;28;20040;-83
2023/05/09 06:03:20;;;;;;;3.53;1.92;;;384.20;2329.60;;;;;;5040277;28;20041;-84
2023/05/09 06:05:47;;;;;;;3.88;1.90;;;384.50;2329.60;;;;;;5039996;28;20044;-84
2023/05/09 06:08:13;;;;;;;3.08;1.40;;;384.20;2329.60;;;;;;5039995;28;20073;-84
2023/05/09 06:10:39;;;;;;;6.88;2.65;;;384.70;2329.60;;;;;;5047131;28;20033;-83
2023/05/09 06:13:05;;;;;;;8.23;3.10;;;409.60;2355.20;;;;;;5059360;28;20047;-83
2023/05/09 06:15:32;;;;;;;6.18;3.13;;;384.80;2329.60;;;;;;5052478;28;20023;-84
2023/05/09 06:17:58;;;;;;;5.93;3.50;;;409.70;2355.20;;;;;;5039076;28;20023;-83
2023/05/09 06:20:24;;;;;;;4.53;2.90;;;384.80;2329.60;;;;;;5037924;28;20048;-82
2023/05/09 06:22:51;;;;;;;7.68;2.63;;;384.90;2329.60;;;;;;5055629;28;20065;-84
2023/05/09 06:25:17;;;;;;;4.40;2.70;;;410.00;2355.20;;;;;;5040928;28;20052;-83
2023/05/09 06:27:43;;;;;;;4.60;3.03;;;409.70;2355.20;;;;;;5058417;28;20036;-82
2023/05/09 06:30:10;;;;;;;5.97;3.50;;;409.70;2355.20;;;;;;5059003;28;20052;-83
2023/05/09 06:32:38;;;;;;;7.18;3.22;;;409.70;2355.20;;;;;;5039733;28;20029;-83
2023/05/09 06:35:04;;;;;;;5.15;3.33;;;410.10;2355.20;;;;;;5040321;28;20056;-83
2023/05/09 06:37:34;;;;;;;8.35;4.30;;;409.90;2355.20;;;;;;5048891;28;20055;-83
2023/05/09 06:40:00;;;;;;;6.05;3.97;;;410.00;2355.20;;;;;;5076666;28;20108;-84
2023/05/09 06:42:27;;;;;;;7.07;5.03;;;384.70;2329.60;;;;;;5069115;28;20049;-84
2023/05/09 06:44:55;;;;;;;5.32;3.72;;;410.20;2355.20;;;;;;5040194;28;20017;-84
2023/05/09 06:47:21;;;;;;;11.40;4.25;;;410.20;2355.20;;;;;;5039799;28;20009;-83
2023/05/09 06:49:47;;;;;;;4.82;3.17;;;435.50;2355.20;;;;;;5040825;28;20041;-84
2023/05/09 06:52:14;;;;;;;7.40;4.60;;;410.20;2355.20;;;;;;5040613;28;20048;-83
2023/05/09 06:54:40;;;;;;;7.55;3.95;;;410.30;2355.20;;;;;;5041880;28;20013;-84
2023/05/09 06:57:07;;;;;;;8.07;4.35;;;410.40;2355.20;;;;;;5060756;28;20022;-85
2023/05/09 06:59:33;;;;;;;5.63;3.78;;;410.40;2355.20;;;;;;5060692;28;20021;-85
2023/05/09 07:01:59;;;;;;;7.30;5.28;;;410.50;2355.20;;;;;;5040849;28;20014;-84
2023/05/09 07:04:28;;;;;;;6.32;4.35;;;410.30;2355.20;;;;;;5039146;28;20013;-81
2023/05/09 07:06:54;;;;;;;5.93;3.63;;;410.50;2355.20;;;;;;5056174;28;20027;-83
2023/05/09 07:09:22;;;;;;;7.55;4.65;;;410.00;2355.20;;;;;;5059913;28;20013;-83
2023/05/09 07:11:48;;;;;;;5.78;4.18;;;410.50;2355.20;;;;;;5072708;28;20104;-84
2023/05/09 07:14:15;;;;;;;6.00;3.67;;;435.50;2355.20;;;;;;5076378;28;20021;-83
2023/05/09 07:16:41;;;;;;;5.88;3.78;;;410.40;2355.20;;;;;;5075613;28;20383;-83
2023/05/09 07:19:07;;;;;;;5.75;3.45;;;409.80;2355.20;;;;;;5076792;28;20093;-84
2023/05/09 07:21:33;;;;;;;6.63;3.10;;;435.50;2355.20;;;;;;5076030;28;20024;-83
2023/05/09 07:23:59;;;;;;;6.57;3.88;;;410.20;2355.20;;;;;;5076370;28;20053;-84
2023/05/09 07:26:25;;;;;;;7.80;3.08;;;435.20;2355.20;;;;;;5076251;28;20029;-84
2023/05/09 07:28:52;;;;;;;11.15;2.90;;;410.50;2355.20;;;;;;5078139;28;20021;-83
2023/05/09 07:31:18;;;;;;;4.28;2.30;;;435.50;2355.20;;;;;;5079954;28;20051;-84
2023/05/09 07:33:44;;;;;;;3.72;2.00;;;435.30;2355.20;;;;;;5063921;28;20028;-84
2023/05/09 07:36:12;;;;;;;8.70;2.80;;;435.40;2355.20;;;;;;5063730;28;20028;-85
2023/05/09 07:38:39;;;;;;;3.80;2.13;;;435.40;2355.20;;;;;;5060109;28;20045;-83
2023/05/09 07:41:05;;;;;;;5.22;2.65;;;435.50;2355.20;;;;;;5043017;28;20005;-84
2023/05/09 07:43:32;;;;;;;4.53;2.75;;;435.20;2355.20;;;;;;5059493;28;20025;-84
2023/05/09 07:45:58;;;;;;;6.93;4.65;;;435.40;2355.20;;;;;;5062804;28;20028;-84
2023/05/09 07:48:25;;;;;;;7.68;5.40;;;435.50;2355.20;;;;;;5062647;28;20036;-83
2023/05/09 07:50:51;;;;;;;6.40;3.53;;;435.60;2355.20;;;;;;5051611;28;20009;-84
2023/05/09 07:53:17;;;;;;;8.05;3.60;;;410.20;2355.20;;;;;;5043735;28;20041;-84
2023/05/09 07:55:49;;;;;;;6.05;3.83;;;409.90;2355.20;;;;;;5039021;28;20042;-83
2023/05/09 07:58:16;;;;;;;7.80;4.10;;;435.60;2355.20;;;;;;5022431;28;20030;-84
2023/05/09 08:00:42;;;;;;;5.47;3.60;;;461.10;2380.80;;;;;;5021709;28;20033;-83
2023/05/09 08:03:08;;;;;;;4.28;2.75;;;435.80;2355.20;;;;;;5038526;28;20014;-81
2023/05/09 08:05:59;;;;;;;6.88;3.38;;;435.80;2355.20;;;;;;5017789;28;20029;-82
2023/05/09 08:08:59;;;;;;;5.95;3.25;;;435.90;2355.20;;;;;;5019380;28;20078;-83
2023/05/09 08:11:51;;;;;;;5.22;3.17;;;435.90;2355.20;;;;;;5019524;28;20026;-81
2023/05/09 08:35:17;;;;;;;5.95;4.22;;;461.10;2380.80;;;;;;4814790;29;20080;-85
2023/05/09 08:38:25;;;;;;;5.20;2.92;;;461.10;2380.80;;;;;;4830467;29;20031;-84
2023/05/09 08:41:15;;;;;;;5.30;3.20;;;460.90;2380.80;;;;;;4804363;29;20091;-86
2023/05/09 08:43:48;;;;;;;5.78;3.40;;;460.90;2380.80;;;;;;4795407;29;20053;-82
2023/05/09 08:46:19;;;;;;;5.13;3.15;;;460.90;2380.80;;;;;;4798983;29;20031;-84
2023/05/09 08:48:58;;;;;;;5.15;3.65;;;460.90;2380.80;;;;;;4790898;29;20047;-85
2023/05/09 08:51:26;;;;;;;5.68;3.55;;;461.00;2380.80;;;;;;4776073;29;20087;-84
2023/05/09 08:53:53;;;;;;;7.03;4.00;;;461.10;2380.80;;;;;;4778768;29;20095;-85
2023/05/09 08:56:20;;;;;;;5.57;2.88;;;461.10;2380.80;;;;;;4790131;30;20031;-84
2023/05/09 08:59:14;;;;;;;6.13;3.03;;;461.10;2380.80;;;;;;4826531;29;20035;-83
2023/05/09 09:01:49;;;;;;;6.88;4.82;;;461.10;2380.80;;;;;;4855216;29;20037;-82
2023/05/09 09:04:17;;;;;;;4.95;3.10;;;460.90;2380.80;;;;;;4887146;29;20032;-83
2023/05/09 09:06:46;;;;;;;7.35;4.00;;;487.00;2380.80;;;;;;4906994;29;20164;-80
2023/05/09 09:09:24;;;;;;;6.65;3.22;;;461.20;2380.80;;;;;;4960051;29;20027;-85
2023/05/09 09:11:54;;;;;;;9.15;5.32;;;461.30;2380.80;;;;;;4957930;29;20062;-85
2023/05/09 09:15:02;;;;;;;5.18;2.35;;;461.20;2380.80;;;;;;4963893;28;20016;-85
2023/05/09 09:17:38;;;;;;;10.27;6.10;;;461.10;2380.80;;;;;;4980373;28;20189;-86
2023/05/09 09:20:20;;;;;;;8.13;6.15;;;461.10;2380.80;;;;;;4956371;29;20021;-86
2023/05/09 09:23:09;;;;;;;8.02;3.72;;;461.10;2380.80;;;;;;4899463;29;20071;-85
2023/05/09 09:25:56;;;;;;;5.57;3.53;;;461.10;2380.80;;;;;;5027230;23;20049;-85
2023/05/09 09:28:25;;;;;;;5.43;3.42;;;461.00;2380.80;;;;;;5037884;28;20064;-85
2023/05/09 09:30:54;;;;;;;8.13;3.92;;;460.90;2380.80;;;;;;4998517;28;20541;-85
2023/05/09 09:33:22;;;;;;;4.30;3.08;;;460.90;2380.80;;;;;;4982918;28;20015;-85
2023/05/09 09:35:51;;;;;;;3.90;2.63;;;461.10;2380.80;;;;;;4999117;28;20027;-85
2023/05/09 09:38:26;;;;;;;4.50;2.80;;;461.10;2380.80;;;;;;4998947;28;20054;-85
2023/05/09 09:44:12;;;;;;;6.50;3.47;;;461.40;2380.80;;;;;;4979495;28;20029;-85
2023/05/09 09:46:52;;;;;;;5.70;3.50;;;461.40;2380.80;;;;;;4959413;28;20023;-85
2023/05/09 09:49:44;;;;;;;4.68;2.80;;;461.40;2380.80;;;;;;4921866;29;20036;-84
2023/05/09 09:53:02;;;;;;;4.00;2.70;;;461.50;2380.80;;;;;;4905526;29;20060;-85
2023/05/09 09:55:32;;;;;;;4.78;2.60;;;436.00;2355.20;;;;;;4868839;29;20050;-84
2023/05/09 09:57:59;;;;;;;4.20;2.40;;;461.70;2380.80;;;;;;4866105;29;20030;-86
2023/05/09 10:00:27;;;;;;;4.43;2.90;;;487.00;2380.80;;;;;;4846815;29;20046;-84
2023/05/09 10:03:04;;;;;;;4.13;2.30;;;486.70;2380.80;;;;;;4847692;29;20086;-87
2023/05/09 10:06:07;;;;;;;3.80;2.30;;;486.70;2380.80;;;;;;4861766;29;20025;-86
2023/05/09 10:08:39;;;;;;;6.60;3.03;;;486.80;2380.80;;;;;;4896728;29;20035;-86
2023/05/09 10:11:09;;;;;;;3.95;2.30;;;486.80;2380.80;;;;;;4886735;29;20037;-85
2023/05/09 10:13:41;;;;;;;3.55;2.40;;;486.90;2380.80;;;;;;4902520;29;20022;-85
2023/05/09 10:16:38;;;;;;;3.67;2.17;;;487.00;2380.80;;;;;;4902767;29;20041;-87
2023/05/09 10:19:13;;;;;;;4.90;3.38;;;486.80;2380.80;;;;;;4883842;29;20032;-86
2023/05/09 10:21:57;;;;;;;4.97;2.97;;;486.80;2380.80;;;;;;4883224;29;20022;-86
2023/05/09 10:24:48;;;;;;;4.90;2.78;;;486.70;2380.80;;;;;;4865123;29;20046;-85
2023/05/09 10:27:21;;;;;;;5.72;2.83;;;486.70;2380.80;;;;;;4877530;29;20022;-85
2023/05/09 10:30:16;;;;;;;3.70;1.85;;;486.70;2380.80;;;;;;4865604;29;20080;-85
2023/05/09 10:32:56;;;;;;;3.80;2.17;;;486.80;2380.80;;;;;;4907294;29;20052;-84
2023/05/09 10:35:33;;;;;;;7.40;3.85;;;486.70;2380.80;;;;;;4921397;29;20017;-86
2023/05/09 10:38:25;;;;;;;4.82;2.10;;;486.70;2380.80;;;;;;4941658;28;20023;-85
2023/05/09 10:40:52;;;;;;;4.97;2.00;;;486.70;2380.80;;;;;;4973680;28;20031;-85
2023/05/09 10:43:23;;;;;;;3.42;2.20;;;461.50;2380.80;;;;;;5016560;28;20161;-86
2023/05/09 10:45:50;;;;;;;7.20;2.40;;;486.70;2380.80;;;;;;5000569;28;20014;-86
2023/05/09 10:48:20;;;;;;;4.95;3.13;;;486.70;2380.80;;;;;;5039571;28;20021;-83
2023/05/09 10:50:52;;;;;;;4.15;2.55;;;486.40;2380.80;;;;;;5036489;28;20595;-86
2023/05/09 10:53:23;;;;;;;4.57;3.13;;;486.70;2380.80;;;;;;5036870;28;20034;-85
2023/05/09 10:56:09;;;;;;;4.72;2.60;;;486.80;2380.80;;;;;;5003715;28;20026;-86
2023/05/09 10:58:36;;;;;;;3.60;2.40;;;486.70;2380.80;;;;;;4968416;28;20018;-86
2023/05/09 11:01:04;;;;;;;3.55;2.10;;;486.40;2380.80;;;;;;5000922;28;20066;-85
2023/05/09 11:03:52;;;;;;;4.72;2.15;;;486.60;2380.80;;;;;;5004231;28;20042;-87
2023/05/09 11:09:45;;;;;;;5.45;2.33;;;486.50;2380.80;;;;;;5080331;28;20028;-87
2023/05/09 11:15:57;;;;;;;5.05;2.60;;;486.40;2380.80;;;;;;5047266;28;20028;-87
2023/05/09 11:19:10;;;;;;;4.40;2.72;;;486.40;2380.80;;;;;;4980611;28;20071;-83
2023/05/09 11:25:15;;;;;;;4.35;2.13;;;486.70;2380.80;;;;;;4943763;29;20023;-87
2023/05/09 11:27:48;;;;;;;5.65;2.13;;;512.00;2380.80;;;;;;4925231;29;20024;-84
2023/05/09 11:30:19;;;;;;;4.43;2.33;;;486.50;2380.80;;;;;;4925977;29;20071;-83
2023/05/09 11:32:57;;;;;;;4.28;2.30;;;486.50;2380.80;;;;;;4926445;29;20039;-83
2023/05/09 11:35:25;;;;;;;4.32;2.13;;;486.40;2380.80;;;;;;4942097;29;20036;-84
2023/05/09 11:37:59;;;;;;;4.60;2.63;;;461.70;2380.80;;;;;;4942371;29;20020;-84
2023/05/09 11:40:26;;;;;;;5.13;2.45;;;486.50;2380.80;;;;;;4942791;29;20052;-85
2023/05/09 11:42:54;;;;;;;3.55;2.33;;;486.50;2380.80;;;;;;4942208;29;20028;-85
2023/05/09 11:45:23;;;;;;;8.13;4.03;;;486.50;2380.80;;;;;;4923587;29;20100;-85
2023/05/09 11:47:51;;;;;;;4.68;3.00;;;486.50;2380.80;;;;;;4923897;29;20073;-85
2023/05/09 11:50:18;;;;;;;3.63;2.20;;;486.60;2380.80;;;;;;4907517;29;20025;-84
2023/05/09 11:52:47;;;;;;;4.32;2.78;;;486.50;2380.80;;;;;;4946538;28;20121;-84
2023/05/09 11:55:17;;;;;;;7.93;4.05;;;486.60;2380.80;;;;;;4983723;28;20027;-84
2023/05/09 11:57:47;;;;;;;5.15;2.63;;;486.70;2380.80;;;;;;5016990;28;20018;-85
2023/05/09 12:00:21;;;;;;;5.90;2.58;;;486.70;2380.80;;;;;;5022889;28;20097;-83
2023/05/09 12:02:49;;;;;;;5.35;2.28;;;486.70;2380.80;;;;;;5020220;28;20077;-85
2023/05/09 12:05:20;;;;;;;3.70;2.30;;;486.80;2380.80;;;;;;5022236;28;20014;-85
2023/05/09 12:07:47;;;;;;;4.78;2.90;;;486.90;2380.80;;;;;;4989321;28;20050;-85
2023/05/09 12:10:15;;;;;;;4.05;2.70;;;461.60;2380.80;;;;;;5000428;28;20041;-84
2023/05/09 12:12:43;;;;;;;5.35;2.63;;;487.20;2380.80;;;;;;5000514;28;20060;-83
2023/05/09 12:15:12;;;;;;;3.72;2.20;;;487.20;2355.20;;;;;;5006064;28;20053;-84
2023/05/09 12:17:38;;;;;;;3.72;2.17;;;487.30;2355.20;;;;;;5021858;28;20034;-85
2023/05/09 12:20:07;;;;;;;4.63;2.20;;;487.30;2304.00;;;;;;5021034;28;20033;-85
2023/05/09 12:22:33;;;;;;;5.38;2.95;;;512.00;2355.20;;;;;;5020382;28;20068;-82
2023/05/09 12:25:01;;;;;;;7.70;3.75;;;512.10;2329.60;;;;;;5016019;28;20026;-83
2023/05/09 12:27:31;;;;;;;7.00;3.25;;;512.30;2329.60;;;;;;5001316;28;20034;-85
2023/05/09 12:29:59;;;;;;;5.05;2.50;;;512.50;2304.00;;;;;;5001695;28;20006;-82
2023/05/09 12:32:31;;;;;;;4.28;2.53;;;512.50;2278.40;;;;;;5017829;28;20038;-85
2023/05/09 12:35:01;;;;;;;4.20;2.72;;;512.40;2304.00;;;;;;5019697;28;20029;-84
2023/05/09 12:37:33;;;;;;;7.53;3.53;;;512.50;2278.40;;;;;;4995729;28;20030;-86
2023/05/09 12:40:00;;;;;;;;;;;512.60;2278.40;;;;;;5012802;28;20064;-85
2023/05/09 12:42:34;;;;;;;5.97;3.28;;;512.60;2278.40;;;;;;5010931;28;19913;-83
2023/05/09 12:45:06;;;;;;;4.05;2.42;;;512.40;2304.00;;;;;;4994666;28;20030;-85
2023/05/09 12:47:32;;;;;;;6.53;3.22;;;512.20;2278.40;;;;;;4993668;28;20030;-83
2023/05/09 12:50:03;;;;;;;7.13;3.25;;;512.70;2278.40;;;;;;4992116;28;20034;-84
2023/05/09 12:52:40;;;;;;;4.38;2.60;;;512.30;2278.40;;;;;;4991148;28;20107;-83
2023/05/09 12:55:11;;;;;;;6.20;2.65;;;487.30;2278.40;;;;;;5009977;28;20033;-85
2023/05/09 12:57:40;;;;;;;4.82;2.50;;;512.10;2278.40;;;;;;5006332;28;20273;-83